sensor_id;sensor_type;location;lat;lon;timestamp;P1;durP1;ratioP1;P2;durP2;ratioP2
51374;SDS011;37465;52.738;4.752;2023-11-19T00:02:15;33.55;;;7.55;;
51374;SDS011;37465;52.738;4.752;2023-11-19T00:04:43;42.90;;;8.32;;
51374;SDS011;37465;52.738;4.752;2023-11-19T00:07:11;44.85;;;6.88;;
51374;SDS011;37465;52.738;4.752;2023-11-19T00:09:40;44.65;;;7.40;;
51374;SDS011;37465;52.738;4.752;2023-11-19T00:12:08;40.13;;;7.22;;
51374;SDS011;37465;52.738;4.752;2023-11-19T00:14:37;40.13;;;8.07;;
51374;SDS011;37465;52.738;4.752;2023-11-19T00:17:04;41.72;;;7.88;;
51374;SDS011;37465;52.738;4.752;2023-11-19T00:19:32;45.78;;;7.43;;
51374;SDS011;37465;52.738;4.752;2023-11-19T00:22:00;49.13;;;7.72;;
51374;SDS011;37465;52.738;4.752;2023-11-19T00:24:29;44.40;;;8.15;;
51374;SDS011;37465;52.738;4.752;2023-11-19T00:26:58;46.33;;;7.40;;
51374;SDS011;37465;52.738;4.752;2023-11-19T00:29:25;40.15;;;7.07;;
51374;SDS011;37465;52.738;4.752;2023-11-19T00:31:54;39.15;;;7.07;;
51374;SDS011;37465;52.738;4.752;2023-11-19T00:34:22;37.80;;;7.22;;
51374;SDS011;37465;52.738;4.752;2023-11-19T00:36:50;41.60;;;7.47;;
51374;SDS011;37465;52.738;4.752;2023-11-19T00:39:17;50.30;;;8.93;;
51374;SDS011;37465;52.738;4.752;2023-11-19T00:41:47;45.67;;;8.00;;
51374;SDS011;37465;52.738;4.752;2023-11-19T00:44:15;48.42;;;8.10;;
51374;SDS011;37465;52.738;4.752;2023-11-19T00:46:42;52.80;;;8.35;;
51374;SDS011;37465;52.738;4.752;2023-11-19T00:49:11;64.90;;;9.88;;
51374;SDS011;37465;52.738;4.752;2023-11-19T00:51:39;42.25;;;8.15;;
51374;SDS011;37465;52.738;4.752;2023-11-19T00:54:07;41.22;;;7.00;;
51374;SDS011;37465;52.738;4.752;2023-11-19T00:56:34;36.85;;;6.88;;
51374;SDS011;37465;52.738;4.752;2023-11-19T00:59:03;36.60;;;6.77;;
51374;SDS011;37465;52.738;4.752;2023-11-19T01:01:31;41.22;;;7.38;;
51374;SDS011;37465;52.738;4.752;2023-11-19T01:03:59;37.42;;;7.07;;
51374;SDS011;37465;52.738;4.752;2023-11-19T01:06:28;46.97;;;7.57;;
51374;SDS011;37465;52.738;4.752;2023-11-19T01:11:24;35.30;;;6.85;;
51374;SDS011;37465;52.738;4.752;2023-11-19T01:13:52;45.67;;;7.05;;
51374;SDS011;37465;52.738;4.752;2023-11-19T01:16:20;37.83;;;6.90;;
51374;SDS011;37465;52.738;4.752;2023-11-19T01:18:48;36.35;;;6.40;;
51374;SDS011;37465;52.738;4.752;2023-11-19T01:21:16;38.70;;;7.43;;
51374;SDS011;37465;52.738;4.752;2023-11-19T01:23:45;49.05;;;7.90;;
51374;SDS011;37465;52.738;4.752;2023-11-19T01:26:13;43.20;;;8.02;;
51374;SDS011;37465;52.738;4.752;2023-11-19T01:28:41;38.15;;;6.40;;
51374;SDS011;37465;52.738;4.752;2023-11-19T01:31:14;48.50;;;8.32;;
51374;SDS011;37465;52.738;4.752;2023-11-19T01:33:42;47.88;;;7.90;;
51374;SDS011;37465;52.738;4.752;2023-11-19T01:36:12;37.75;;;7.00;;
51374;SDS011;37465;52.738;4.752;2023-11-19T01:38:40;61.33;;;9.10;;
51374;SDS011;37465;52.738;4.752;2023-11-19T01:41:09;51.03;;;8.45;;
51374;SDS011;37465;52.738;4.752;2023-11-19T01:43:38;46.63;;;7.13;;
51374;SDS011;37465;52.738;4.752;2023-11-19T01:46:07;48.05;;;8.02;;
51374;SDS011;37465;52.738;4.752;2023-11-19T01:48:38;45.33;;;8.25;;
51374;SDS011;37465;52.738;4.752;2023-11-19T01:51:09;42.58;;;7.00;;
51374;SDS011;37465;52.738;4.752;2023-11-19T01:53:39;51.33;;;8.45;;
51374;SDS011;37465;52.738;4.752;2023-11-19T01:56:07;50.55;;;8.13;;
51374;SDS011;37465;52.738;4.752;2023-11-19T01:58:38;40.03;;;6.75;;
51374;SDS011;37465;52.738;4.752;2023-11-19T02:01:07;35.13;;;5.70;;
51374;SDS011;37465;52.738;4.752;2023-11-19T02:03:37;53.17;;;8.82;;
51374;SDS011;37465;52.738;4.752;2023-11-19T02:06:06;44.40;;;7.00;;
51374;SDS011;37465;52.738;4.752;2023-11-19T02:08:36;54.53;;;9.50;;
51374;SDS011;37465;52.738;4.752;2023-11-19T02:11:05;43.70;;;7.28;;
51374;SDS011;37465;52.738;4.752;2023-11-19T02:13:33;44.20;;;7.07;;
51374;SDS011;37465;52.738;4.752;2023-11-19T02:16:04;45.67;;;8.20;;
51374;SDS011;37465;52.738;4.752;2023-11-19T02:18:33;45.25;;;7.90;;
51374;SDS011;37465;52.738;4.752;2023-11-19T02:21:01;38.08;;;8.23;;
51374;SDS011;37465;52.738;4.752;2023-11-19T02:23:29;46.08;;;8.85;;
51374;SDS011;37465;52.738;4.752;2023-11-19T02:26:00;48.17;;;8.40;;
51374;SDS011;37465;52.738;4.752;2023-11-19T02:28:37;44.70;;;7.75;;
51374;SDS011;37465;52.738;4.752;2023-11-19T02:31:04;46.30;;;7.55;;
51374;SDS011;37465;52.738;4.752;2023-11-19T02:33:36;49.85;;;8.88;;
51374;SDS011;37465;52.738;4.752;2023-11-19T02:36:04;49.15;;;8.07;;
51374;SDS011;37465;52.738;4.752;2023-11-19T02:38:33;54.03;;;8.80;;
51374;SDS011;37465;52.738;4.752;2023-11-19T02:41:03;49.10;;;8.07;;
51374;SDS011;37465;52.738;4.752;2023-11-19T02:43:32;48.67;;;7.95;;
51374;SDS011;37465;52.738;4.752;2023-11-19T02:46:02;44.60;;;8.75;;
51374;SDS011;37465;52.738;4.752;2023-11-19T02:48:41;48.88;;;8.25;;
51374;SDS011;37465;52.738;4.752;2023-11-19T02:51:09;48.70;;;8.85;;
51374;SDS011;37465;52.738;4.752;2023-11-19T02:53:37;50.90;;;9.20;;
51374;SDS011;37465;52.738;4.752;2023-11-19T02:56:06;44.92;;;8.60;;
51374;SDS011;37465;52.738;4.752;2023-11-19T02:58:42;53.17;;;8.07;;
51374;SDS011;37465;52.738;4.752;2023-11-19T03:01:14;36.40;;;6.55;;
51374;SDS011;37465;52.738;4.752;2023-11-19T03:03:50;47.83;;;9.07;;
51374;SDS011;37465;52.738;4.752;2023-11-19T03:06:21;47.75;;;7.85;;
51374;SDS011;37465;52.738;4.752;2023-11-19T03:08:48;48.03;;;8.38;;
51374;SDS011;37465;52.738;4.752;2023-11-19T03:11:16;43.28;;;8.93;;
51374;SDS011;37465;52.738;4.752;2023-11-19T03:13:44;54.35;;;8.00;;
51374;SDS011;37465;52.738;4.752;2023-11-19T03:16:14;47.90;;;8.15;;
51374;SDS011;37465;52.738;4.752;2023-11-19T03:18:43;52.28;;;7.80;;
51374;SDS011;37465;52.738;4.752;2023-11-19T03:21:11;47.25;;;8.27;;
51374;SDS011;37465;52.738;4.752;2023-11-19T03:23:39;48.30;;;8.85;;
51374;SDS011;37465;52.738;4.752;2023-11-19T03:26:07;45.22;;;8.25;;
51374;SDS011;37465;52.738;4.752;2023-11-19T03:28:35;46.00;;;7.50;;
51374;SDS011;37465;52.738;4.752;2023-11-19T03:31:04;41.83;;;8.52;;
51374;SDS011;37465;52.738;4.752;2023-11-19T03:33:35;41.83;;;7.43;;
51374;SDS011;37465;52.738;4.752;2023-11-19T03:38:32;41.42;;;7.28;;
51374;SDS011;37465;52.738;4.752;2023-11-19T03:40:59;43.15;;;7.40;;
51374;SDS011;37465;52.738;4.752;2023-11-19T03:43:27;40.72;;;7.60;;
51374;SDS011;37465;52.738;4.752;2023-11-19T03:45:55;39.88;;;7.18;;
51374;SDS011;37465;52.738;4.752;2023-11-19T03:48:22;40.00;;;7.57;;
51374;SDS011;37465;52.738;4.752;2023-11-19T03:50:51;46.08;;;8.02;;
51374;SDS011;37465;52.738;4.752;2023-11-19T03:53:19;43.35;;;7.70;;
51374;SDS011;37465;52.738;4.752;2023-11-19T03:55:47;45.95;;;7.10;;
51374;SDS011;37465;52.738;4.752;2023-11-19T03:58:16;45.38;;;7.30;;
51374;SDS011;37465;52.738;4.752;2023-11-19T04:00:43;44.33;;;7.57;;
51374;SDS011;37465;52.738;4.752;2023-11-19T04:03:11;51.55;;;9.70;;
51374;SDS011;37465;52.738;4.752;2023-11-19T04:05:39;41.22;;;7.88;;
51374;SDS011;37465;52.738;4.752;2023-11-19T04:08:08;47.80;;;8.18;;
51374;SDS011;37465;52.738;4.752;2023-11-19T04:10:35;35.38;;;8.05;;
51374;SDS011;37465;52.738;4.752;2023-11-19T04:13:03;39.15;;;7.15;;
51374;SDS011;37465;52.738;4.752;2023-11-19T04:15:31;45.08;;;7.50;;
51374;SDS011;37465;52.738;4.752;2023-11-19T04:17:59;33.08;;;6.60;;
51374;SDS011;37465;52.738;4.752;2023-11-19T04:20:27;40.25;;;8.02;;
51374;SDS011;37465;52.738;4.752;2023-11-19T04:22:54;39.22;;;7.00;;
51374;SDS011;37465;52.738;4.752;2023-11-19T04:25:23;42.10;;;7.78;;
51374;SDS011;37465;52.738;4.752;2023-11-19T04:27:52;35.05;;;7.07;;
51374;SDS011;37465;52.738;4.752;2023-11-19T04:30:20;38.60;;;7.32;;
51374;SDS011;37465;52.738;4.752;2023-11-19T04:32:48;39.38;;;6.53;;
51374;SDS011;37465;52.738;4.752;2023-11-19T04:35:16;35.40;;;7.28;;
51374;SDS011;37465;52.738;4.752;2023-11-19T04:37:45;34.70;;;6.18;;
51374;SDS011;37465;52.738;4.752;2023-11-19T04:40:13;33.47;;;7.28;;
51374;SDS011;37465;52.738;4.752;2023-11-19T04:42:43;50.67;;;7.63;;
51374;SDS011;37465;52.738;4.752;2023-11-19T04:45:11;43.50;;;7.43;;
51374;SDS011;37465;52.738;4.752;2023-11-19T04:47:39;40.88;;;8.82;;
51374;SDS011;37465;52.738;4.752;2023-11-19T04:50:06;40.40;;;6.53;;
51374;SDS011;37465;52.738;4.752;2023-11-19T04:52:37;39.97;;;7.88;;
51374;SDS011;37465;52.738;4.752;2023-11-19T04:55:06;36.40;;;7.13;;
51374;SDS011;37465;52.738;4.752;2023-11-19T04:57:35;37.35;;;7.35;;
51374;SDS011;37465;52.738;4.752;2023-11-19T05:00:05;36.42;;;6.38;;
51374;SDS011;37465;52.738;4.752;2023-11-19T05:02:37;49.63;;;9.43;;
51374;SDS011;37465;52.738;4.752;2023-11-19T05:05:05;41.05;;;7.43;;
51374;SDS011;37465;52.738;4.752;2023-11-19T05:07:33;39.07;;;7.53;;
51374;SDS011;37465;52.738;4.752;2023-11-19T05:10:02;38.20;;;6.40;;
51374;SDS011;37465;52.738;4.752;2023-11-19T05:12:30;35.95;;;6.78;;
51374;SDS011;37465;52.738;4.752;2023-11-19T05:14:58;41.90;;;7.22;;
51374;SDS011;37465;52.738;4.752;2023-11-19T05:17:28;37.65;;;7.38;;
51374;SDS011;37465;52.738;4.752;2023-11-19T05:19:55;47.88;;;8.65;;
51374;SDS011;37465;52.738;4.752;2023-11-19T05:22:23;31.08;;;6.63;;
51374;SDS011;37465;52.738;4.752;2023-11-19T05:24:52;38.15;;;7.15;;
51374;SDS011;37465;52.738;4.752;2023-11-19T05:27:20;42.10;;;6.90;;
51374;SDS011;37465;52.738;4.752;2023-11-19T05:29:50;40.47;;;6.90;;
51374;SDS011;37465;52.738;4.752;2023-11-19T05:32:17;37.20;;;6.78;;
51374;SDS011;37465;52.738;4.752;2023-11-19T05:34:46;39.95;;;6.57;;
51374;SDS011;37465;52.738;4.752;2023-11-19T05:37:18;35.08;;;7.38;;
51374;SDS011;37465;52.738;4.752;2023-11-19T05:39:46;31.33;;;6.30;;
51374;SDS011;37465;52.738;4.752;2023-11-19T05:42:13;34.17;;;6.57;;
51374;SDS011;37465;52.738;4.752;2023-11-19T05:44:41;45.20;;;8.02;;
51374;SDS011;37465;52.738;4.752;2023-11-19T05:47:09;32.65;;;6.38;;
51374;SDS011;37465;52.738;4.752;2023-11-19T05:49:36;35.20;;;6.22;;
51374;SDS011;37465;52.738;4.752;2023-11-19T05:52:06;34.55;;;7.65;;
51374;SDS011;37465;52.738;4.752;2023-11-19T05:54:36;42.20;;;7.30;;
51374;SDS011;37465;52.738;4.752;2023-11-19T05:57:04;36.95;;;6.70;;
51374;SDS011;37465;52.738;4.752;2023-11-19T05:59:32;36.38;;;6.90;;
51374;SDS011;37465;52.738;4.752;2023-11-19T06:02:00;35.38;;;6.80;;
51374;SDS011;37465;52.738;4.752;2023-11-19T06:04:28;33.13;;;5.53;;
51374;SDS011;37465;52.738;4.752;2023-11-19T06:06:56;41.83;;;6.55;;
51374;SDS011;37465;52.738;4.752;2023-11-19T06:09:25;34.22;;;6.80;;
51374;SDS011;37465;52.738;4.752;2023-11-19T06:11:53;39.38;;;6.95;;
51374;SDS011;37465;52.738;4.752;2023-11-19T06:14:23;38.88;;;8.07;;
51374;SDS011;37465;52.738;4.752;2023-11-19T06:16:51;29.42;;;5.85;;
51374;SDS011;37465;52.738;4.752;2023-11-19T06:19:19;38.53;;;7.50;;
51374;SDS011;37465;52.738;4.752;2023-11-19T06:21:47;34.10;;;7.47;;
51374;SDS011;37465;52.738;4.752;2023-11-19T06:24:14;37.72;;;6.72;;
51374;SDS011;37465;52.738;4.752;2023-11-19T06:26:43;38.92;;;7.25;;
51374;SDS011;37465;52.738;4.752;2023-11-19T06:29:11;39.92;;;6.80;;
51374;SDS011;37465;52.738;4.752;2023-11-19T06:31:44;37.80;;;6.82;;
51374;SDS011;37465;52.738;4.752;2023-11-19T06:34:13;32.22;;;7.53;;
51374;SDS011;37465;52.738;4.752;2023-11-19T06:36:40;38.53;;;7.72;;
51374;SDS011;37465;52.738;4.752;2023-11-19T06:39:09;35.45;;;6.45;;
51374;SDS011;37465;52.738;4.752;2023-11-19T06:41:38;34.73;;;6.60;;
51374;SDS011;37465;52.738;4.752;2023-11-19T06:44:07;35.22;;;6.32;;
51374;SDS011;37465;52.738;4.752;2023-11-19T06:46:35;35.67;;;6.15;;
51374;SDS011;37465;52.738;4.752;2023-11-19T06:49:03;32.92;;;6.53;;
51374;SDS011;37465;52.738;4.752;2023-11-19T06:51:31;36.80;;;7.32;;
51374;SDS011;37465;52.738;4.752;2023-11-19T06:53:58;35.75;;;7.35;;
51374;SDS011;37465;52.738;4.752;2023-11-19T06:56:27;38.63;;;7.05;;
51374;SDS011;37465;52.738;4.752;2023-11-19T06:58:54;42.92;;;7.55;;
51374;SDS011;37465;52.738;4.752;2023-11-19T07:01:24;36.42;;;6.88;;
51374;SDS011;37465;52.738;4.752;2023-11-19T07:03:52;35.33;;;6.28;;
51374;SDS011;37465;52.738;4.752;2023-11-19T07:06:20;40.53;;;7.18;;
51374;SDS011;37465;52.738;4.752;2023-11-19T07:09:00;36.67;;;7.03;;
51374;SDS011;37465;52.738;4.752;2023-11-19T07:11:35;42.58;;;6.68;;
51374;SDS011;37465;52.738;4.752;2023-11-19T07:14:05;31.25;;;6.47;;
51374;SDS011;37465;52.738;4.752;2023-11-19T07:16:34;34.38;;;5.80;;
51374;SDS011;37465;52.738;4.752;2023-11-19T07:19:04;40.30;;;7.13;;
51374;SDS011;37465;52.738;4.752;2023-11-19T07:21:33;39.92;;;6.78;;
51374;SDS011;37465;52.738;4.752;2023-11-19T07:24:02;29.27;;;5.75;;
51374;SDS011;37465;52.738;4.752;2023-11-19T07:26:30;35.93;;;6.40;;
51374;SDS011;37465;52.738;4.752;2023-11-19T07:28:57;39.60;;;6.55;;
51374;SDS011;37465;52.738;4.752;2023-11-19T07:31:27;34.20;;;6.47;;
51374;SDS011;37465;52.738;4.752;2023-11-19T07:33:56;37.65;;;6.93;;
51374;SDS011;37465;52.738;4.752;2023-11-19T07:36:24;28.63;;;5.85;;
51374;SDS011;37465;52.738;4.752;2023-11-19T07:38:52;34.58;;;7.03;;
51374;SDS011;37465;52.738;4.752;2023-11-19T07:41:22;39.10;;;5.93;;
51374;SDS011;37465;52.738;4.752;2023-11-19T07:43:51;28.40;;;6.30;;
51374;SDS011;37465;52.738;4.752;2023-11-19T07:46:19;37.50;;;6.45;;
51374;SDS011;37465;52.738;4.752;2023-11-19T07:48:47;39.28;;;7.60;;
51374;SDS011;37465;52.738;4.752;2023-11-19T07:51:17;43.75;;;7.55;;
51374;SDS011;37465;52.738;4.752;2023-11-19T07:53:44;36.17;;;6.80;;
51374;SDS011;37465;52.738;4.752;2023-11-19T07:56:12;34.63;;;6.50;;
51374;SDS011;37465;52.738;4.752;2023-11-19T07:58:40;36.55;;;6.18;;
51374;SDS011;37465;52.738;4.752;2023-11-19T08:01:08;36.30;;;6.65;;
51374;SDS011;37465;52.738;4.752;2023-11-19T08:03:36;37.30;;;6.60;;
51374;SDS011;37465;52.738;4.752;2023-11-19T08:06:04;38.08;;;6.18;;
51374;SDS011;37465;52.738;4.752;2023-11-19T08:08:34;30.03;;;6.63;;
51374;SDS011;37465;52.738;4.752;2023-11-19T08:11:04;37.05;;;7.78;;
51374;SDS011;37465;52.738;4.752;2023-11-19T08:13:32;37.38;;;6.32;;
51374;SDS011;37465;52.738;4.752;2023-11-19T08:16:00;33.08;;;6.25;;
51374;SDS011;37465;52.738;4.752;2023-11-19T08:18:28;35.20;;;6.25;;
51374;SDS011;37465;52.738;4.752;2023-11-19T08:20:56;33.05;;;6.43;;
51374;SDS011;37465;52.738;4.752;2023-11-19T08:25:56;25.80;;;5.45;;
51374;SDS011;37465;52.738;4.752;2023-11-19T08:28:23;27.58;;;5.57;;
51374;SDS011;37465;52.738;4.752;2023-11-19T08:30:51;34.92;;;5.90;;
51374;SDS011;37465;52.738;4.752;2023-11-19T08:33:19;34.92;;;6.65;;
51374;SDS011;37465;52.738;4.752;2023-11-19T08:35:48;30.52;;;6.35;;
51374;SDS011;37465;52.738;4.752;2023-11-19T08:38:16;30.77;;;5.97;;
51374;SDS011;37465;52.738;4.752;2023-11-19T08:40:58;35.65;;;6.65;;
51374;SDS011;37465;52.738;4.752;2023-11-19T08:43:27;35.20;;;6.68;;
51374;SDS011;37465;52.738;4.752;2023-11-19T08:45:55;32.95;;;6.28;;
51374;SDS011;37465;52.738;4.752;2023-11-19T08:48:23;33.53;;;5.65;;
51374;SDS011;37465;52.738;4.752;2023-11-19T08:50:52;37.13;;;6.80;;
51374;SDS011;37465;52.738;4.752;2023-11-19T08:53:20;37.85;;;6.68;;
51374;SDS011;37465;52.738;4.752;2023-11-19T08:55:48;32.17;;;7.05;;
51374;SDS011;37465;52.738;4.752;2023-11-19T08:58:17;37.78;;;6.60;;
51374;SDS011;37465;52.738;4.752;2023-11-19T09:00:45;33.88;;;6.30;;
51374;SDS011;37465;52.738;4.752;2023-11-19T09:03:13;36.08;;;7.18;;
51374;SDS011;37465;52.738;4.752;2023-11-19T09:05:41;31.58;;;5.85;;
51374;SDS011;37465;52.738;4.752;2023-11-19T09:08:08;34.67;;;6.35;;
51374;SDS011;37465;52.738;4.752;2023-11-19T09:10:37;36.65;;;6.05;;
51374;SDS011;37465;52.738;4.752;2023-11-19T09:13:05;31.63;;;6.40;;
51374;SDS011;37465;52.738;4.752;2023-11-19T09:15:35;30.13;;;5.90;;
51374;SDS011;37465;52.738;4.752;2023-11-19T09:18:03;32.42;;;6.68;;
51374;SDS011;37465;52.738;4.752;2023-11-19T09:20:31;32.45;;;5.72;;
51374;SDS011;37465;52.738;4.752;2023-11-19T09:23:04;27.42;;;5.18;;
51374;SDS011;37465;52.738;4.752;2023-11-19T09:25:32;28.52;;;5.55;;
51374;SDS011;37465;52.738;4.752;2023-11-19T09:28:03;33.20;;;6.78;;
51374;SDS011;37465;52.738;4.752;2023-11-19T09:30:31;28.23;;;5.63;;
51374;SDS011;37465;52.738;4.752;2023-11-19T09:33:01;30.27;;;5.60;;
51374;SDS011;37465;52.738;4.752;2023-11-19T09:35:29;31.55;;;5.95;;
51374;SDS011;37465;52.738;4.752;2023-11-19T09:37:57;32.35;;;5.97;;
51374;SDS011;37465;52.738;4.752;2023-11-19T09:40:26;32.35;;;5.75;;
51374;SDS011;37465;52.738;4.752;2023-11-19T09:42:54;30.85;;;7.05;;
51374;SDS011;37465;52.738;4.752;2023-11-19T09:45:22;34.08;;;6.93;;
51374;SDS011;37465;52.738;4.752;2023-11-19T09:47:55;33.53;;;6.97;;
51374;SDS011;37465;52.738;4.752;2023-11-19T09:50:25;29.58;;;6.50;;
51374;SDS011;37465;52.738;4.752;2023-11-19T09:52:53;40.40;;;6.28;;
51374;SDS011;37465;52.738;4.752;2023-11-19T09:55:21;38.00;;;6.43;;
51374;SDS011;37465;52.738;4.752;2023-11-19T09:57:49;32.30;;;5.93;;
51374;SDS011;37465;52.738;4.752;2023-11-19T10:00:19;27.15;;;6.32;;
51374;SDS011;37465;52.738;4.752;2023-11-19T10:02:48;34.33;;;7.35;;
51374;SDS011;37465;52.738;4.752;2023-11-19T10:05:17;30.83;;;6.18;;
51374;SDS011;37465;52.738;4.752;2023-11-19T10:07:49;29.92;;;5.68;;
51374;SDS011;37465;52.738;4.752;2023-11-19T10:12:45;27.35;;;5.55;;
51374;SDS011;37465;52.738;4.752;2023-11-19T10:15:19;34.08;;;5.55;;
51374;SDS011;37465;52.738;4.752;2023-11-19T10:17:48;32.05;;;5.70;;
51374;SDS011;37465;52.738;4.752;2023-11-19T10:20:17;25.98;;;5.88;;
51374;SDS011;37465;52.738;4.752;2023-11-19T10:22:45;31.33;;;4.95;;
51374;SDS011;37465;52.738;4.752;2023-11-19T10:25:23;25.02;;;4.80;;
51374;SDS011;37465;52.738;4.752;2023-11-19T10:27:52;33.40;;;6.30;;
51374;SDS011;37465;52.738;4.752;2023-11-19T10:30:20;25.65;;;5.30;;
51374;SDS011;37465;52.738;4.752;2023-11-19T10:33:02;27.00;;;5.68;;
51374;SDS011;37465;52.738;4.752;2023-11-19T10:35:31;32.45;;;6.05;;
51374;SDS011;37465;52.738;4.752;2023-11-19T10:38:00;28.35;;;5.00;;
51374;SDS011;37465;52.738;4.752;2023-11-19T10:40:38;27.15;;;5.05;;
51374;SDS011;37465;52.738;4.752;2023-11-19T10:43:07;33.10;;;5.72;;
51374;SDS011;37465;52.738;4.752;2023-11-19T10:45:35;31.65;;;5.63;;
51374;SDS011;37465;52.738;4.752;2023-11-19T10:48:04;31.00;;;6.07;;
51374;SDS011;37465;52.738;4.752;2023-11-19T10:50:33;31.42;;;5.80;;
51374;SDS011;37465;52.738;4.752;2023-11-19T10:53:02;25.25;;;5.43;;
51374;SDS011;37465;52.738;4.752;2023-11-19T10:55:32;27.58;;;5.90;;
51374;SDS011;37465;52.738;4.752;2023-11-19T10:58:03;34.10;;;5.57;;
51374;SDS011;37465;52.738;4.752;2023-11-19T11:00:34;31.52;;;6.00;;
51374;SDS011;37465;52.738;4.752;2023-11-19T11:03:08;30.08;;;6.15;;
51374;SDS011;37465;52.738;4.752;2023-11-19T11:05:38;24.38;;;5.38;;
51374;SDS011;37465;52.738;4.752;2023-11-19T11:08:08;30.25;;;5.47;;
51374;SDS011;37465;52.738;4.752;2023-11-19T11:10:38;30.20;;;6.50;;
51374;SDS011;37465;52.738;4.752;2023-11-19T11:13:14;31.52;;;5.78;;
51374;SDS011;37465;52.738;4.752;2023-11-19T11:15:42;30.90;;;5.55;;
51374;SDS011;37465;52.738;4.752;2023-11-19T11:18:13;30.15;;;5.70;;
51374;SDS011;37465;52.738;4.752;2023-11-19T11:20:41;26.63;;;5.45;;
51374;SDS011;37465;52.738;4.752;2023-11-19T11:23:18;30.67;;;5.55;;
51374;SDS011;37465;52.738;4.752;2023-11-19T11:26:07;27.67;;;5.28;;
51374;SDS011;37465;52.738;4.752;2023-11-19T11:28:54;28.92;;;4.97;;
51374;SDS011;37465;52.738;4.752;2023-11-19T11:31:29;25.02;;;4.65;;
51374;SDS011;37465;52.738;4.752;2023-11-19T11:37:15;20.17;;;4.38;;
51374;SDS011;37465;52.738;4.752;2023-11-19T11:39:46;27.38;;;4.85;;
51374;SDS011;37465;52.738;4.752;2023-11-19T11:42:30;26.92;;;4.63;;
51374;SDS011;37465;52.738;4.752;2023-11-19T11:45:03;29.60;;;5.63;;
51374;SDS011;37465;52.738;4.752;2023-11-19T11:50:35;21.90;;;4.57;;
51374;SDS011;37465;52.738;4.752;2023-11-19T11:53:16;29.77;;;5.43;;
51374;SDS011;37465;52.738;4.752;2023-11-19T11:55:57;25.50;;;5.40;;
51374;SDS011;37465;52.738;4.752;2023-11-19T11:58:30;25.25;;;4.32;;
51374;SDS011;37465;52.738;4.752;2023-11-19T12:01:04;27.45;;;5.70;;
51374;SDS011;37465;52.738;4.752;2023-11-19T12:03:37;24.98;;;4.97;;
51374;SDS011;37465;52.738;4.752;2023-11-19T12:06:06;26.38;;;4.50;;
51374;SDS011;37465;52.738;4.752;2023-11-19T12:08:34;29.48;;;5.13;;
51374;SDS011;37465;52.738;4.752;2023-11-19T12:11:19;28.45;;;5.45;;
51374;SDS011;37465;52.738;4.752;2023-11-19T12:13:52;29.47;;;5.77;;
51374;SDS011;37465;52.738;4.752;2023-11-19T12:16:23;30.67;;;5.82;;
51374;SDS011;37465;52.738;4.752;2023-11-19T12:18:54;26.63;;;5.82;;
51374;SDS011;37465;52.738;4.752;2023-11-19T12:21:28;30.33;;;6.45;;
51374;SDS011;37465;52.738;4.752;2023-11-19T12:23:57;30.05;;;5.55;;
51374;SDS011;37465;52.738;4.752;2023-11-19T12:26:31;29.25;;;4.75;;
51374;SDS011;37465;52.738;4.752;2023-11-19T12:29:02;27.27;;;6.53;;
51374;SDS011;37465;52.738;4.752;2023-11-19T12:31:36;29.15;;;5.78;;
51374;SDS011;37465;52.738;4.752;2023-11-19T12:34:05;38.33;;;5.82;;
51374;SDS011;37465;52.738;4.752;2023-11-19T12:36:34;25.52;;;6.20;;
51374;SDS011;37465;52.738;4.752;2023-11-19T12:39:02;28.98;;;5.13;;
51374;SDS011;37465;52.738;4.752;2023-11-19T12:41:30;25.73;;;5.20;;
51374;SDS011;37465;52.738;4.752;2023-11-19T12:44:08;23.85;;;5.15;;
51374;SDS011;37465;52.738;4.752;2023-11-19T12:46:38;23.90;;;5.43;;
51374;SDS011;37465;52.738;4.752;2023-11-19T12:49:06;30.13;;;5.10;;
51374;SDS011;37465;52.738;4.752;2023-11-19T12:51:34;21.63;;;4.40;;
51374;SDS011;37465;52.738;4.752;2023-11-19T12:54:01;27.67;;;4.95;;
51374;SDS011;37465;52.738;4.752;2023-11-19T12:56:31;22.13;;;5.68;;
51374;SDS011;37465;52.738;4.752;2023-11-19T12:59:01;24.70;;;5.13;;
51374;SDS011;37465;52.738;4.752;2023-11-19T13:01:39;24.63;;;4.30;;
51374;SDS011;37465;52.738;4.752;2023-11-19T13:04:17;25.67;;;4.82;;
51374;SDS011;37465;52.738;4.752;2023-11-19T13:06:45;27.73;;;5.05;;
51374;SDS011;37465;52.738;4.752;2023-11-19T13:09:30;25.67;;;4.93;;
51374;SDS011;37465;52.738;4.752;2023-11-19T13:11:59;22.98;;;4.65;;
51374;SDS011;37465;52.738;4.752;2023-11-19T13:14:35;24.67;;;4.72;;
51374;SDS011;37465;52.738;4.752;2023-11-19T13:17:05;27.80;;;4.68;;
51374;SDS011;37465;52.738;4.752;2023-11-19T13:19:33;21.27;;;4.68;;
51374;SDS011;37465;52.738;4.752;2023-11-19T13:22:01;24.70;;;4.63;;
51374;SDS011;37465;52.738;4.752;2023-11-19T13:24:28;19.83;;;4.70;;
51374;SDS011;37465;52.738;4.752;2023-11-19T13:26:56;24.30;;;5.03;;
51374;SDS011;37465;52.738;4.752;2023-11-19T13:29:24;22.17;;;4.68;;
51374;SDS011;37465;52.738;4.752;2023-11-19T13:31:54;18.90;;;4.40;;
51374;SDS011;37465;52.738;4.752;2023-11-19T13:34:23;28.00;;;5.68;;
51374;SDS011;37465;52.738;4.752;2023-11-19T13:36:51;25.02;;;4.63;;
51374;SDS011;37465;52.738;4.752;2023-11-19T13:39:19;24.33;;;4.85;;
51374;SDS011;37465;52.738;4.752;2023-11-19T13:41:49;19.13;;;4.35;;
51374;SDS011;37465;52.738;4.752;2023-11-19T13:44:17;21.13;;;4.50;;
51374;SDS011;37465;52.738;4.752;2023-11-19T13:46:45;21.25;;;4.75;;
51374;SDS011;37465;52.738;4.752;2023-11-19T13:49:13;26.98;;;5.75;;
51374;SDS011;37465;52.738;4.752;2023-11-19T13:51:43;19.80;;;4.70;;
51374;SDS011;37465;52.738;4.752;2023-11-19T13:54:11;27.67;;;4.57;;
51374;SDS011;37465;52.738;4.752;2023-11-19T13:56:40;26.83;;;5.18;;
51374;SDS011;37465;52.738;4.752;2023-11-19T13:59:11;23.30;;;4.40;;
51374;SDS011;37465;52.738;4.752;2023-11-19T14:01:38;24.02;;;4.57;;
51374;SDS011;37465;52.738;4.752;2023-11-19T14:04:06;29.10;;;4.63;;
51374;SDS011;37465;52.738;4.752;2023-11-19T14:06:35;29.40;;;5.55;;
51374;SDS011;37465;52.738;4.752;2023-11-19T14:09:06;31.75;;;5.30;;
51374;SDS011;37465;52.738;4.752;2023-11-19T14:11:34;28.52;;;6.22;;
51374;SDS011;37465;52.738;4.752;2023-11-19T14:14:02;23.85;;;5.10;;
51374;SDS011;37465;52.738;4.752;2023-11-19T14:16:30;22.75;;;4.65;;
51374;SDS011;37465;52.738;4.752;2023-11-19T14:18:58;31.17;;;6.20;;
51374;SDS011;37465;52.738;4.752;2023-11-19T14:21:26;21.70;;;4.53;;
51374;SDS011;37465;52.738;4.752;2023-11-19T14:23:54;30.17;;;5.88;;
51374;SDS011;37465;52.738;4.752;2023-11-19T14:26:23;32.00;;;5.50;;
51374;SDS011;37465;52.738;4.752;2023-11-19T14:28:51;28.70;;;5.40;;
51374;SDS011;37465;52.738;4.752;2023-11-19T14:31:21;23.40;;;5.20;;
51374;SDS011;37465;52.738;4.752;2023-11-19T14:33:49;23.63;;;4.15;;
51374;SDS011;37465;52.738;4.752;2023-11-19T14:36:17;23.52;;;4.65;;
51374;SDS011;37465;52.738;4.752;2023-11-19T14:38:44;32.10;;;4.95;;
51374;SDS011;37465;52.738;4.752;2023-11-19T14:41:12;27.17;;;4.80;;
51374;SDS011;37465;52.738;4.752;2023-11-19T14:43:41;26.83;;;5.28;;
51374;SDS011;37465;52.738;4.752;2023-11-19T14:46:09;28.15;;;5.35;;
51374;SDS011;37465;52.738;4.752;2023-11-19T14:48:36;21.90;;;4.60;;
51374;SDS011;37465;52.738;4.752;2023-11-19T14:51:04;27.30;;;4.50;;
51374;SDS011;37465;52.738;4.752;2023-11-19T14:53:33;27.98;;;4.72;;
51374;SDS011;37465;52.738;4.752;2023-11-19T14:56:00;36.70;;;6.28;;
51374;SDS011;37465;52.738;4.752;2023-11-19T14:58:28;33.22;;;5.15;;
51374;SDS011;37465;52.738;4.752;2023-11-19T15:00:57;32.13;;;6.05;;
51374;SDS011;37465;52.738;4.752;2023-11-19T15:03:25;28.83;;;5.03;;